Time;durP1;ratioP1;P1;durP2;ratioP2;P2;SDS_P1;SDS_P2;PMS_P1;PMS_P2;Temp;Humidity;BMP_temperature;BMP_pressure;BME280_temperature;BME280_humidity;BME280_pressure;Samples;Min_cycle;Max_cycle;Signal;HPM_P1;HPM_P2
2022/11/23 00:00:10;;;;;;;9.60;4.47;;;;;;;;;;4385223;32;64878;-71
2022/11/23 00:02:57;;;;;;;10.02;4.85;;;;;;;;;;4384193;32;67138;-71
2022/11/23 00:05:43;;;;;;;7.70;4.90;;;;;;;;;;4373180;32;66928;-71
2022/11/23 00:08:30;;;;;;;8.93;5.10;;;;;;;;;;4383899;32;71594;-71
2022/11/23 00:11:18;;;;;;;7.68;4.53;;;;;;;;;;4385248;32;67046;-71
2022/11/23 00:14:04;;;;;;;8.25;4.35;;;;;;;;;;4383735;32;68055;-71
2022/11/23 00:16:49;;;;;;;7.85;4.62;;;;;;;;;;3847455;37;43852;-71
2022/11/23 00:19:36;;;;;;;6.60;3.83;;;;;;;;;;4410180;32;60132;-71
2022/11/23 00:22:23;;;;;;;7.00;4.10;;;;;;;;;;4399371;32;70250;-71
2022/11/23 00:25:10;;;;;;;6.15;3.55;;;;;;;;;;4398527;32;68900;-70
2022/11/23 00:27:56;;;;;;;5.68;3.50;;;;;;;;;;4409504;32;68237;-71
2022/11/23 00:30:49;;;;;;;7.93;4.03;;;;;;;;;;4398872;32;70503;-71
2022/11/23 00:33:35;;;;;;;7.00;3.80;;;;;;;;;;4410868;32;66045;-71
2022/11/23 00:36:25;;;;;;;5.32;3.15;;;;;;;;;;4390250;32;67142;-73
2022/11/23 00:39:12;;;;;;;6.93;3.95;;;;;;;;;;4399697;32;58876;-71
2022/11/23 00:42:00;;;;;;;6.87;3.80;;;;;;;;;;4409421;32;71814;-71
2022/11/23 00:44:47;;;;;;;8.45;4.43;;;;;;;;;;4409563;32;65786;-71
2022/11/23 00:47:34;;;;;;;6.93;3.92;;;;;;;;;;4398710;32;68235;-71
2022/11/23 00:50:20;;;;;;;6.57;3.62;;;;;;;;;;4376833;32;60560;-71
2022/11/23 00:53:08;;;;;;;6.53;3.62;;;;;;;;;;4409355;32;70547;-71
2022/11/23 00:55:56;;;;;;;7.75;3.78;;;;;;;;;;4410534;32;69418;-71
2022/11/23 00:58:46;;;;;;;6.03;3.55;;;;;;;;;;4397877;32;68518;-71
2022/11/23 01:01:35;;;;;;;7.03;3.80;;;;;;;;;;4410520;32;71646;-70
2022/11/23 01:04:22;;;;;;;5.60;3.35;;;;;;;;;;4409912;32;64985;-70
2022/11/23 01:07:09;;;;;;;5.57;3.45;;;;;;;;;;4409753;32;69479;-71
2022/11/23 01:09:55;;;;;;;5.43;3.37;;;;;;;;;;4398824;32;68211;-72
2022/11/23 01:12:42;;;;;;;6.22;3.78;;;;;;;;;;4404255;32;71802;-72
2022/11/23 01:15:29;;;;;;;7.12;3.85;;;;;;;;;;4410358;32;64998;-71
2022/11/23 01:18:16;;;;;;;5.50;3.50;;;;;;;;;;4387505;32;68058;-71
2022/11/23 01:21:02;;;;;;;6.93;3.75;;;;;;;;;;4398175;32;59697;-71
2022/11/23 01:23:50;;;;;;;6.32;3.78;;;;;;;;;;4398602;32;70689;-71
2022/11/23 01:26:37;;;;;;;6.28;3.40;;;;;;;;;;4404630;32;69892;-72
2022/11/23 01:29:24;;;;;;;6.55;3.85;;;;;;;;;;4377029;32;68110;-71
2022/11/23 01:32:11;;;;;;;5.75;3.53;;;;;;;;;;4387890;32;60751;-71
2022/11/23 01:34:58;;;;;;;6.47;4.00;;;;;;;;;;4388370;32;70580;-72
2022/11/23 01:37:45;;;;;;;7.20;3.83;;;;;;;;;;4377322;32;68271;-71
2022/11/23 01:40:41;;;;;;;6.05;3.55;;;;;;;;;;4398395;32;68646;-71
2022/11/23 01:43:28;;;;;;;7.37;3.72;;;;;;;;;;4387911;32;72339;-71
2022/11/23 01:46:15;;;;;;;6.15;3.53;;;;;;;;;;4388654;32;65817;-71
2022/11/23 01:49:05;;;;;;;;;;;;;;;;;;4388208;32;66541;-71
2022/11/23 01:51:53;;;;;;;1.85;1.30;;;;;;;;;;4398787;32;58831;-71
2022/11/23 01:54:55;;;;;;;6.85;3.83;;;;;;;;;;4386796;32;71432;-71
2022/11/23 01:57:44;;;;;;;6.30;3.50;;;;;;;;;;4387893;32;65970;-71
2022/11/23 02:00:31;;;;;;;6.20;3.15;;;;;;;;;;4398430;32;67612;-71
2022/11/23 02:03:18;;;;;;;5.70;3.50;;;;;;;;;;4377120;32;60791;-71
2022/11/23 02:06:06;;;;;;;;;;;;;;;;;;4398031;32;71234;-72
2022/11/23 02:08:54;;;;;;;5.37;3.33;;;;;;;;;;4398594;32;69749;-71
2022/11/23 02:11:41;;;;;;;;;;;;;;;;;;4387877;32;66757;-71
2022/11/23 02:14:30;;;;;;;6.70;3.28;;;;;;;;;;4399178;32;71159;-71
2022/11/23 02:17:17;;;;;;;5.43;3.08;;;;;;;;;;4398386;32;65680;-71
2022/11/23 02:20:08;;;;;;;6.47;3.03;;;;;;;;;;4398419;32;66799;-71
2022/11/23 02:23:31;;;;;;;5.93;3.33;;;;;;;;;;4399354;32;66811;-71
2022/11/23 02:26:37;;;;;;;4.82;3.08;;;;;;;;;;4374754;32;70816;-71
2022/11/23 02:29:25;;;;;;;4.75;3.00;;;;;;;;;;4387277;32;66258;-71
2022/11/23 02:32:11;;;;;;;6.40;3.30;;;;;;;;;;4397977;32;67454;-72
2022/11/23 02:34:58;;;;;;;5.03;2.97;;;;;;;;;;4398184;32;60258;-72
2022/11/23 02:37:45;;;;;;;5.60;3.00;;;;;;;;;;4386274;32;71277;-70
2022/11/23 02:40:33;;;;;;;5.53;3.12;;;;;;;;;;4376382;32;69591;-72
2022/11/23 02:43:21;;;;;;;5.00;3.05;;;;;;;;;;4399130;32;66837;-71
2022/11/23 02:46:07;;;;;;;4.93;2.83;;;;;;;;;;4399306;32;60094;-72
2022/11/23 02:48:54;;;;;;;;;;;;;;;;;;4398187;32;70567;-71
2022/11/23 02:51:40;;;;;;;5.03;2.90;;;;;;;;;;4399413;32;69512;-71
2022/11/23 02:54:27;;;;;;;4.62;2.60;;;;;;;;;;4397912;32;66715;-71
2022/11/23 02:57:14;;;;;;;4.82;2.62;;;;;;;;;;4397469;32;71891;-71
2022/11/23 03:00:04;;;;;;;4.50;2.25;;;;;;;;;;4397750;32;64796;-71
2022/11/23 03:02:51;;;;;;;4.53;2.50;;;;;;;;;;4375530;32;68097;-71
2022/11/23 03:05:38;;;;;;;4.82;2.65;;;;;;;;;;4398020;32;58724;-71
2022/11/23 03:08:24;;;;;;;4.70;2.70;;;;;;;;;;4397400;32;70515;-71
2022/11/23 03:11:12;;;;;;;3.92;2.33;;;;;;;;;;4398705;32;66238;-71
2022/11/23 03:13:59;;;;;;;3.95;2.33;;;;;;;;;;4386273;32;68138;-71
2022/11/23 03:16:46;;;;;;;4.07;2.60;;;;;;;;;;4386785;32;61927;-71
2022/11/23 03:19:35;;;;;;;3.53;2.20;;;;;;;;;;4387062;32;69681;-72
2022/11/23 03:22:22;;;;;;;3.92;2.60;;;;;;;;;;4398599;32;69343;-71
2022/11/23 03:25:10;;;;;;;3.20;2.28;;;;;;;;;;4398793;32;66735;-72
2022/11/23 03:27:58;;;;;;;4.70;2.12;;;;;;;;;;4397215;32;70804;-71
2022/11/23 03:30:44;;;;;;;;;;;;;;;;;;4397785;32;65813;-71
2022/11/23 03:33:31;;;;;;;3.78;2.15;;;;;;;;;;4398988;32;66882;-71
2022/11/23 03:36:18;;;;;;;2.67;2.10;;;;;;;;;;4397114;32;67228;-70
2022/11/23 03:39:06;;;;;;;2.83;2.05;;;;;;;;;;4397119;32;71553;-72
2022/11/23 03:41:55;;;;;;;3.40;2.28;;;;;;;;;;4386647;32;65991;-72
2022/11/23 03:44:42;;;;;;;2.65;1.85;;;;;;;;;;4386956;32;67633;-71
2022/11/23 03:47:29;;;;;;;2.80;2.00;;;;;;;;;;4397515;32;59161;-71
2022/11/23 03:50:16;;;;;;;2.12;1.80;;;;;;;;;;4385395;32;71164;-70
2022/11/23 03:53:03;;;;;;;2.72;1.58;;;;;;;;;;4396990;32;68304;-71
2022/11/23 03:55:50;;;;;;;2.42;1.87;;;;;;;;;;4398197;32;66926;-71
2022/11/23 03:58:37;;;;;;;;;;;;;;;;;;4386840;32;71453;-71
2022/11/23 04:01:25;;;;;;;2.03;1.70;;;;;;;;;;4375273;32;70617;-71
2022/11/23 04:04:13;;;;;;;2.75;1.62;;;;;;;;;;4396266;32;69137;-71
2022/11/23 04:07:04;;;;;;;2.92;1.83;;;;;;;;;;4375106;32;67350;-71
2022/11/23 04:09:51;;;;;;;2.33;1.80;;;;;;;;;;4386131;32;70881;-71
2022/11/23 04:12:39;;;;;;;2.65;1.50;;;;;;;;;;4396240;32;64857;-71
2022/11/23 04:15:27;;;;;;;2.00;1.52;;;;;;;;;;4395854;32;67010;-71
2022/11/23 04:18:13;;;;;;;3.33;2.00;;;;;;;;;;4374945;32;60800;-71
2022/11/23 04:21:00;;;;;;;2.58;1.87;;;;;;;;;;4385537;32;70262;-72
2022/11/23 04:23:47;;;;;;;3.55;1.85;;;;;;;;;;4386262;32;69448;-70
2022/11/23 04:26:35;;;;;;;3.35;1.77;;;;;;;;;;4385709;32;67064;-71
2022/11/23 04:29:21;;;;;;;3.42;1.80;;;;;;;;;;4385859;32;60923;-71
2022/11/23 04:32:07;;;;;;;2.80;1.75;;;;;;;;;;3847348;37;43434;-71
2022/11/23 04:34:56;;;;;;;3.70;2.15;;;;;;;;;;4389104;32;59266;-70
2022/11/23 04:37:43;;;;;;;3.35;2.10;;;;;;;;;;4409593;32;70538;-71
2022/11/23 04:40:30;;;;;;;3.10;2.25;;;;;;;;;;4408942;32;69172;-71
2022/11/23 04:43:17;;;;;;;3.42;1.98;;;;;;;;;;4409229;32;68407;-71
2022/11/23 04:46:04;;;;;;;2.90;1.83;;;;;;;;;;4409634;32;71463;-71
2022/11/23 04:48:50;;;;;;;3.33;2.08;;;;;;;;;;4411023;32;65607;-70
2022/11/23 04:51:37;;;;;;;3.40;1.83;;;;;;;;;;4398881;32;67152;-71
2022/11/23 04:54:24;;;;;;;2.70;1.87;;;;;;;;;;4387454;32;60906;-71
2022/11/23 04:57:11;;;;;;;3.78;2.17;;;;;;;;;;4398701;32;71043;-71
2022/11/23 04:59:58;;;;;;;3.92;2.15;;;;;;;;;;4409534;32;64886;-72
2022/11/23 05:02:45;;;;;;;3.90;2.20;;;;;;;;;;4409537;32;67162;-72
2022/11/23 05:05:33;;;;;;;3.97;1.98;;;;;;;;;;4410219;32;59317;-71
2022/11/23 05:08:21;;;;;;;4.35;2.00;;;;;;;;;;4398097;32;71033;-72
2022/11/23 05:11:07;;;;;;;3.47;2.00;;;;;;;;;;4410487;32;68320;-71
2022/11/23 05:13:57;;;;;;;2.33;1.67;;;;;;;;;;4398710;32;66082;-71
2022/11/23 05:16:43;;;;;;;;;;;;;;;;;;4410892;32;71673;-71
2022/11/23 05:19:30;;;;;;;2.70;1.80;;;;;;;;;;4399267;32;65871;-71
2022/11/23 05:22:17;;;;;;;;;;;;;;;;;;4410963;32;69237;-74
2022/11/23 05:25:04;;;;;;;2.87;1.98;;;;;;;;;;4387047;32;67540;-70
2022/11/23 05:27:52;;;;;;;2.75;1.65;;;;;;;;;;4386933;32;71427;-70
2022/11/23 05:30:39;;;;;;;4.87;2.05;;;;;;;;;;4408816;32;65812;-71
2022/11/23 05:33:25;;;;;;;3.35;2.00;;;;;;;;;;4398419;32;67517;-70
2022/11/23 05:36:12;;;;;;;;;;;;;;;;;;4398209;32;60694;-68
2022/11/23 05:38:59;;;;;;;2.50;1.97;;;;;;;;;;4386934;32;70923;-69
2022/11/23 05:41:47;;;;;;;2.33;1.65;;;;;;;;;;4394864;32;70630;-70
2022/11/23 05:44:35;;;;;;;2.50;1.60;;;;;;;;;;4400335;32;67465;-69
2022/11/23 05:47:25;;;;;;;2.17;1.73;;;;;;;;;;4377336;32;60898;-69
2022/11/23 05:50:12;;;;;;;2.53;1.70;;;;;;;;;;4398531;32;70265;-68
2022/11/23 05:53:00;;;;;;;2.50;1.70;;;;;;;;;;4399858;32;69174;-69
2022/11/23 05:55:46;;;;;;;3.35;1.62;;;;;;;;;;4399832;32;67795;-68
2022/11/23 05:58:33;;;;;;;;;;;;;;;;;;4400200;32;70665;-71
2022/11/23 06:01:20;;;;;;;3.08;1.90;;;;;;;;;;4388012;32;64715;-66
2022/11/23 06:04:07;;;;;;;1.83;1.40;;;;;;;;;;4398582;32;66709;-66
2022/11/23 06:06:57;;;;;;;2.95;1.40;;;;;;;;;;4376507;32;57897;-66
2022/11/23 06:09:45;;;;;;;1.62;1.30;;;;;;;;;;4398162;32;70558;-65
2022/11/23 06:12:31;;;;;;;2.37;1.40;;;;;;;;;;4399498;32;64867;-67
2022/11/23 06:15:19;;;;;;;1.73;1.20;;;;;;;;;;4398345;32;67093;-71
2022/11/23 06:18:06;;;;;;;2.45;1.50;;;;;;;;;;4399930;32;59990;-71
2022/11/23 06:20:53;;;;;;;1.52;1.05;;;;;;;;;;4387528;32;70681;-71
2022/11/23 06:23:40;;;;;;;1.40;1.08;;;;;;;;;;4398101;32;69912;-69
2022/11/23 06:26:27;;;;;;;0.68;0.65;;;;;;;;;;4398287;32;67776;-68
2022/11/23 06:29:14;;;;;;;2.40;1.70;;;;;;;;;;4376889;32;70902;-68
2022/11/23 06:32:01;;;;;;;2.30;1.50;;;;;;;;;;4399227;32;66012;-68
2022/11/23 06:34:47;;;;;;;;;;;;;;;;;;4398656;32;67738;-69
2022/11/23 06:37:35;;;;;;;1.62;1.15;;;;;;;;;;4387570;32;68003;-70
2022/11/23 06:40:22;;;;;;;2.37;1.70;;;;;;;;;;4365253;32;72111;-70
2022/11/23 06:43:10;;;;;;;1.35;0.85;;;;;;;;;;4397572;32;66711;-69
2022/11/23 06:45:58;;;;;;;2.25;1.30;;;;;;;;;;4387012;32;65191;-69
2022/11/23 06:48:47;;;;;;;2.20;1.50;;;;;;;;;;4376295;32;60456;-68
2022/11/23 06:51:33;;;;;;;2.87;1.23;;;;;;;;;;4398974;32;69750;-68
2022/11/23 06:54:20;;;;;;;;;;;;;;;;;;4386124;32;68388;-69
2022/11/23 06:57:09;;;;;;;1.23;1.10;;;;;;;;;;4397991;32;66840;-68
2022/11/23 06:59:56;;;;;;;1.62;0.73;;;;;;;;;;4387424;32;58986;-69
2022/11/23 07:02:49;;;;;;;0.88;0.80;;;;;;;;;;4397473;32;71319;-70
2022/11/23 07:05:38;;;;;;;0.85;0.80;;;;;;;;;;4387027;32;69242;-68
2022/11/23 07:08:26;;;;;;;1.67;1.08;;;;;;;;;;4375777;32;68197;-69
2022/11/23 07:11:13;;;;;;;1.92;1.00;;;;;;;;;;4397558;32;71758;-66
2022/11/23 07:13:59;;;;;;;;;;;;;;;;;;4386885;32;65679;-68
2022/11/23 07:16:47;;;;;;;1.03;0.70;;;;;;;;;;4376626;32;67998;-72
2022/11/23 07:19:34;;;;;;;0.70;0.65;;;;;;;;;;4397828;32;59521;-68
2022/11/23 07:22:21;;;;;;;1.35;1.12;;;;;;;;;;4386660;32;70705;-68
2022/11/23 07:25:10;;;;;;;0.90;0.90;;;;;;;;;;4397582;32;65910;-70
2022/11/23 07:28:00;;;;;;;1.17;0.80;;;;;;;;;;4387060;32;67462;-68
2022/11/23 07:30:48;;;;;;;1.15;0.98;;;;;;;;;;4375978;32;59290;-68
2022/11/23 07:33:37;;;;;;;0.73;0.70;;;;;;;;;;4375464;32;70149;-68
2022/11/23 07:36:24;;;;;;;1.80;0.70;;;;;;;;;;4396643;32;69793;-68
2022/11/23 07:39:11;;;;;;;1.30;0.88;;;;;;;;;;4397209;32;66710;-68
2022/11/23 07:41:57;;;;;;;2.50;0.73;;;;;;;;;;4385915;32;72405;-68
2022/11/23 07:44:45;;;;;;;1.12;0.80;;;;;;;;;;4396998;32;66519;-70
2022/11/23 07:47:32;;;;;;;1.12;0.82;;;;;;;;;;4398918;32;67420;-70
2022/11/23 07:50:19;;;;;;;1.35;0.95;;;;;;;;;;4364920;32;67234;-70
2022/11/23 07:53:06;;;;;;;1.00;0.70;;;;;;;;;;4385939;32;72548;-70
2022/11/23 07:55:59;;;;;;;1.17;0.75;;;;;;;;;;4375302;32;67285;-69
2022/11/23 07:58:46;;;;;;;1.73;0.93;;;;;;;;;;4397129;32;67415;-72
2022/11/23 08:01:32;;;;;;;1.15;1.05;;;;;;;;;;4398721;32;58791;-71
2022/11/23 08:04:19;;;;;;;1.73;1.30;;;;;;;;;;4374601;32;70790;-69
2022/11/23 08:07:06;;;;;;;1.67;1.40;;;;;;;;;;4397491;32;69672;-67
2022/11/23 08:09:52;;;;;;;1.62;1.27;;;;;;;;;;4386394;32;67632;-69
2022/11/23 08:12:39;;;;;;;2.22;1.12;;;;;;;;;;4385954;32;73283;-70
2022/11/23 08:15:27;;;;;;;2.35;1.58;;;;;;;;;;4397233;32;70377;-68
2022/11/23 08:18:13;;;;;;;2.35;1.58;;;;;;;;;;4398205;32;69067;-69
2022/11/23 08:23:44;;;;;;;1.92;1.40;;;;;;;;;;3822513;37;43860;-71
2022/11/23 08:26:32;;;;;;;2.90;1.62;;;;;;;;;;4360425;32;58032;-70
2022/11/23 08:29:19;;;;;;;2.05;1.42;;;;;;;;;;4383801;32;70436;-73
2022/11/23 08:32:05;;;;;;;1.85;1.40;;;;;;;;;;4370769;32;68235;-72
2022/11/23 08:34:52;;;;;;;2.95;1.65;;;;;;;;;;4383676;32;66653;-70
2022/11/23 08:37:39;;;;;;;;;;;;;;;;;;4373084;32;72656;-71
2022/11/23 08:40:26;;;;;;;2.00;1.23;;;;;;;;;;4384374;32;66193;-69
2022/11/23 08:43:13;;;;;;;2.47;1.27;;;;;;;;;;4384309;32;67241;-68
2022/11/23 08:46:00;;;;;;;1.70;1.17;;;;;;;;;;4360498;32;57909;-68
2022/11/23 08:48:47;;;;;;;1.65;1.20;;;;;;;;;;4383862;32;72038;-68
2022/11/23 08:51:34;;;;;;;;;;;;;;;;;;4396530;32;66006;-69
2022/11/23 08:54:23;;;;;;;2.40;1.45;;;;;;;;;;4370603;32;66727;-70
2022/11/23 08:57:09;;;;;;;2.67;1.10;;;;;;;;;;4384566;32;59375;-69
2022/11/23 08:59:57;;;;;;;2.22;1.30;;;;;;;;;;4384951;32;69620;-71
2022/11/23 09:02:48;;;;;;;2.67;1.25;;;;;;;;;;4382072;32;67933;-67
2022/11/23 09:05:37;;;;;;;1.42;1.30;;;;;;;;;;4372468;32;66124;-67
2022/11/23 09:08:24;;;;;;;1.62;1.12;;;;;;;;;;4386106;32;70958;-67
2022/11/23 09:11:11;;;;;;;;;;;;;;;;;;4378721;32;65241;-67
2022/11/23 09:13:58;;;;;;;1.52;0.73;;;;;;;;;;4379570;32;68725;-67
2022/11/23 09:16:45;;;;;;;1.08;1.00;;;;;;;;;;4401813;32;66580;-66
2022/11/23 09:19:32;;;;;;;1.33;0.90;;;;;;;;;;4379086;32;71810;-66
2022/11/23 09:22:19;;;;;;;0.68;0.68;;;;;;;;;;4391134;32;65306;-66
2022/11/23 09:25:06;;;;;;;0.88;0.60;;;;;;;;;;4388775;32;65919;-66
2022/11/23 09:27:59;;;;;;;1.77;1.08;;;;;;;;;;4390663;32;59232;-66
2022/11/23 09:30:46;;;;;;;1.08;0.90;;;;;;;;;;4376873;32;69288;-66
2022/11/23 09:33:34;;;;;;;1.42;0.80;;;;;;;;;;4376280;32;68727;-66
2022/11/23 09:36:21;;;;;;;1.02;0.75;;;;;;;;;;4369829;32;67863;-66
2022/11/23 09:39:08;;;;;;;0.60;0.60;;;;;;;;;;4366569;32;58981;-66
2022/11/23 09:42:01;;;;;;;0.70;0.57;;;;;;;;;;4367125;32;69948;-66
2022/11/23 09:45:18;;;;;;;1.00;0.90;;;;;;;;;;4376492;32;68386;-66
2022/11/23 09:48:18;;;;;;;;;;;;;;;;;;4369657;32;68237;-66
2022/11/23 09:51:18;;;;;;;0.65;0.60;;;;;;;;;;4390759;32;71759;-66
2022/11/23 09:54:13;;;;;;;1.15;0.80;;;;;;;;;;4365868;32;63617;-65
2022/11/23 09:57:00;;;;;;;0.80;0.80;;;;;;;;;;4367908;32;67817;-65
2022/11/23 10:00:04;;;;;;;1.42;0.82;;;;;;;;;;4368490;32;59255;-66
2022/11/23 10:02:52;;;;;;;1.90;1.20;;;;;;;;;;4367989;32;69747;-66
2022/11/23 10:05:39;;;;;;;1.25;0.80;;;;;;;;;;4363790;32;63654;-66
2022/11/23 10:08:57;;;;;;;1.50;0.62;;;;;;;;;;4375720;32;67700;-66
2022/11/23 10:11:56;;;;;;;1.85;0.60;;;;;;;;;;4349426;32;57910;-67
2022/11/23 10:15:16;;;;;;;1.67;0.70;;;;;;;;;;4362100;32;69454;-65
2022/11/23 10:18:34;;;;;;;1.02;0.90;;;;;;;;;;4384120;32;68445;-66
2022/11/23 10:21:56;;;;;;;2.00;1.12;;;;;;;;;;4384150;32;67565;-66
2022/11/23 10:24:46;;;;;;;0.52;0.52;;;;;;;;;;4359013;32;73311;-66
2022/11/23 10:27:33;;;;;;;0.77;0.77;;;;;;;;;;4349027;32;66719;-66
2022/11/23 10:30:20;;;;;;;1.02;0.90;;;;;;;;;;4369678;32;67215;-65
2022/11/23 10:33:09;;;;;;;;;;;;;;;;;;4362040;32;67521;-67
2022/11/23 10:35:56;;;;;;;2.75;1.02;;;;;;;;;;4383986;32;70923;-65
2022/11/23 10:38:43;;;;;;;;;;;;;;;;;;4372335;32;65954;-66
2022/11/23 10:41:31;;;;;;;1.73;1.20;;;;;;;;;;4348170;32;66565;-66
2022/11/23 10:44:23;;;;;;;1.20;1.10;;;;;;;;;;4372307;32;59200;-65
2022/11/23 10:47:09;;;;;;;1.60;1.08;;;;;;;;;;4383292;32;69392;-65
2022/11/23 10:49:57;;;;;;;2.58;1.48;;;;;;;;;;4348277;32;69972;-65
2022/11/23 10:52:51;;;;;;;0.80;0.80;;;;;;;;;;4371852;32;67772;-66
2022/11/23 10:55:51;;;;;;;2.15;1.20;;;;;;;;;;4371959;32;60119;-66
2022/11/23 10:58:43;;;;;;;1.25;1.10;;;;;;;;;;4361421;32;70628;-65
2022/11/23 11:01:30;;;;;;;1.23;1.10;;;;;;;;;;4371910;32;69474;-65
2022/11/23 11:04:24;;;;;;;1.42;0.90;;;;;;;;;;4350723;32;67699;-67
2022/11/23 11:07:18;;;;;;;2.00;1.30;;;;;;;;;;4361281;32;70807;-65
2022/11/23 11:10:05;;;;;;;1.67;1.50;;;;;;;;;;4384595;32;65898;-65
2022/11/23 11:12:52;;;;;;;2.58;1.67;;;;;;;;;;4363106;32;66496;-65
2022/11/23 11:15:38;;;;;;;;;;;;;;;;;;4372149;32;60811;-66
2022/11/23 11:18:27;;;;;;;2.30;1.40;;;;;;;;;;4350891;32;70737;-65
2022/11/23 11:21:21;;;;;;;2.05;1.67;;;;;;;;;;4363621;32;66182;-66
2022/11/23 11:24:43;;;;;;;1.70;1.17;;;;;;;;;;4362484;32;67043;-66
2022/11/23 11:27:31;;;;;;;3.15;1.50;;;;;;;;;;4337206;32;59128;-66
2022/11/23 11:30:24;;;;;;;1.33;1.17;;;;;;;;;;4371331;32;70125;-66
2022/11/23 11:33:36;;;;;;;1.23;1.10;;;;;;;;;;4350281;32;69316;-66
2022/11/23 11:36:24;;;;;;;2.08;1.17;;;;;;;;;;4371311;32;66855;-66
2022/11/23 11:39:16;;;;;;;1.35;1.15;;;;;;;;;;4358305;32;71520;-67
2022/11/23 11:42:06;;;;;;;1.10;0.88;;;;;;;;;;4358626;32;65981;-65
2022/11/23 11:44:55;;;;;;;1.70;1.30;;;;;;;;;;4384417;32;67699;-66
2022/11/23 11:47:48;;;;;;;3.12;1.15;;;;;;;;;;4361624;32;67752;-71
2022/11/23 11:50:50;;;;;;;3.47;2.03;;;;;;;;;;4329040;32;74819;-68
2022/11/23 11:54:02;;;;;;;2.62;1.67;;;;;;;;;;4355456;32;64336;-69
2022/11/23 11:57:17;;;;;;;2.37;1.55;;;;;;;;;;4337925;32;68532;-69
2022/11/23 12:00:10;;;;;;;2.92;1.48;;;;;;;;;;4341955;32;60191;-67
2022/11/23 12:03:10;;;;;;;2.97;1.80;;;;;;;;;;4357023;32;70733;-70
2022/11/23 12:06:19;;;;;;;3.10;1.80;;;;;;;;;;4344628;32;68574;-66
2022/11/23 12:09:16;;;;;;;3.17;1.83;;;;;;;;;;4342035;32;68487;-66
2022/11/23 12:12:07;;;;;;;3.50;1.73;;;;;;;;;;4360457;32;72029;-66
2022/11/23 12:14:53;;;;;;;2.53;1.87;;;;;;;;;;4339695;32;71313;-67
2022/11/23 12:18:00;;;;;;;;;;;;;;;;;;4328252;32;69005;-69
2022/11/23 12:20:55;;;;;;;4.18;1.77;;;;;;;;;;4332495;32;67498;-68
2022/11/23 12:24:08;;;;;;;4.80;1.92;;;;;;;;;;4331768;32;72596;-67
2022/11/23 12:27:19;;;;;;;3.03;1.77;;;;;;;;;;4353910;32;66588;-63
2022/11/23 12:30:31;;;;;;;2.50;1.35;;;;;;;;;;4351506;32;66574;-73
2022/11/23 12:33:46;;;;;;;2.85;1.62;;;;;;;;;;4360004;32;60456;-74
2022/11/23 12:36:38;;;;;;;3.40;2.25;;;;;;;;;;4363334;32;69487;-76
2022/11/23 12:40:00;;;;;;;2.05;1.27;;;;;;;;;;4341464;32;68896;-71
2022/11/23 12:42:51;;;;;;;3.42;2.20;;;;;;;;;;4373396;32;67575;-71
2022/11/23 12:46:06;;;;;;;1.92;1.20;;;;;;;;;;4338198;32;61253;-69
2022/11/23 12:49:02;;;;;;;2.37;1.50;;;;;;;;;;4374037;32;71923;-69
2022/11/23 12:52:23;;;;;;;1.90;1.48;;;;;;;;;;4342753;32;69558;-68
2022/11/23 12:55:15;;;;;;;1.45;0.65;;;;;;;;;;4339204;32;68120;-68
2022/11/23 12:58:22;;;;;;;0.37;0.32;;;;;;;;;;4369995;32;71340;-69
2022/11/23 13:01:16;;;;;;;2.28;1.40;;;;;;;;;;4340154;32;67290;-70
2022/11/23 13:04:03;;;;;;;1.55;1.17;;;;;;;;;;4331150;32;69706;-69
2022/11/23 13:07:06;;;;;;;;;;;;;;;;;;4358822;32;58573;-72
2022/11/23 13:10:17;;;;;;;3.90;1.25;;;;;;;;;;4340211;32;73427;-67
2022/11/23 13:13:22;;;;;;;2.60;1.42;;;;;;;;;;4348015;32;67477;-69
2022/11/23 13:16:27;;;;;;;1.85;1.60;;;;;;;;;;4369559;32;67117;-68
2022/11/23 13:19:14;;;;;;;1.00;0.90;;;;;;;;;;4363046;32;59117;-72
2022/11/23 13:22:00;;;;;;;0.52;0.47;;;;;;;;;;4359199;32;69962;-68
2022/11/23 13:25:22;;;;;;;0.95;0.93;;;;;;;;;;4355215;32;70027;-67
2022/11/23 13:28:29;;;;;;;1.62;1.23;;;;;;;;;;4343123;32;67678;-71
2022/11/23 13:31:15;;;;;;;2.83;1.15;;;;;;;;;;4364006;32;71663;-74
2022/11/23 13:34:23;;;;;;;1.95;1.25;;;;;;;;;;4362541;32;71564;-72
2022/11/23 13:37:10;;;;;;;0.93;0.70;;;;;;;;;;4370341;32;69625;-72
2022/11/23 13:39:57;;;;;;;;;;;;;;;;;;4349569;32;66530;-74
2022/11/23 13:42:43;;;;;;;0.60;0.60;;;;;;;;;;4370241;32;72860;-74
2022/11/23 13:45:35;;;;;;;1.05;0.88;;;;;;;;;;4343560;32;66551;-74
2022/11/23 13:48:22;;;;;;;0.80;0.70;;;;;;;;;;4351239;32;67912;-72
2022/11/23 13:51:09;;;;;;;2.15;1.00;;;;;;;;;;4355176;32;60285;-73
2022/11/23 13:54:01;;;;;;;1.12;0.88;;;;;;;;;;4330889;32;69637;-69
2022/11/23 13:56:58;;;;;;;0.52;0.52;;;;;;;;;;4343598;32;68816;-74
2022/11/23 13:59:44;;;;;;;1.25;0.95;;;;;;;;;;4356234;32;67788;-71
2022/11/23 14:02:32;;;;;;;3.72;1.12;;;;;;;;;;4350079;32;60771;-71
2022/11/23 14:05:58;;;;;;;0.82;0.55;;;;;;;;;;4371507;32;70806;-75
2022/11/23 14:08:46;;;;;;;1.00;0.90;;;;;;;;;;4308444;32;67122;-74
2022/11/23 14:11:39;;;;;;;1.20;1.10;;;;;;;;;;4311026;32;68156;-69
2022/11/23 14:14:44;;;;;;;1.02;0.80;;;;;;;;;;4357150;32;72015;-67
2022/11/23 14:18:08;;;;;;;1.25;0.90;;;;;;;;;;4342120;32;66694;-69
2022/11/23 14:21:04;;;;;;;0.90;0.90;;;;;;;;;;4354745;32;68683;-68
2022/11/23 14:24:30;;;;;;;3.35;1.05;;;;;;;;;;4353964;32;59200;-70
2022/11/23 14:27:51;;;;;;;1.45;0.77;;;;;;;;;;4364738;32;70555;-69
2022/11/23 14:31:15;;;;;;;1.35;1.25;;;;;;;;;;4338123;32;64995;-68
2022/11/23 14:34:35;;;;;;;0.62;0.62;;;;;;;;;;4331832;32;68157;-70
2022/11/23 14:37:40;;;;;;;0.93;0.80;;;;;;;;;;4357429;32;60026;-69
2022/11/23 14:40:51;;;;;;;1.00;0.88;;;;;;;;;;4343873;32;71971;-69
2022/11/23 14:43:41;;;;;;;1.02;0.68;;;;;;;;;;4346338;32;69498;-69
2022/11/23 14:46:28;;;;;;;1.08;0.73;;;;;;;;;;4357043;32;67904;-69
2022/11/23 14:49:15;;;;;;;2.12;0.90;;;;;;;;;;4343601;32;73008;-69
2022/11/23 14:52:03;;;;;;;2.37;0.93;;;;;;;;;;4344046;32;66769;-69
2022/11/23 14:54:51;;;;;;;1.52;1.08;;;;;;;;;;4336026;32;68414;-68
2022/11/23 14:57:40;;;;;;;1.62;1.05;;;;;;;;;;4356843;32;67956;-69
2022/11/23 15:00:35;;;;;;;1.02;0.80;;;;;;;;;;4343831;32;72310;-69
2022/11/23 15:03:28;;;;;;;1.27;1.00;;;;;;;;;;4356696;32;65212;-69
2022/11/23 15:06:16;;;;;;;1.42;1.10;;;;;;;;;;4333668;32;68175;-68
2022/11/23 15:09:20;;;;;;;0.85;0.80;;;;;;;;;;4343717;32;61013;-68
2022/11/23 15:12:22;;;;;;;1.90;1.00;;;;;;;;;;4354156;32;69240;-69
2022/11/23 15:15:20;;;;;;;2.00;0.90;;;;;;;;;;4346213;32;68401;-69
2022/11/23 15:18:07;;;;;;;2.50;1.33;;;;;;;;;;4346401;32;67818;-69
2022/11/23 15:20:53;;;;;;;1.10;0.77;;;;;;;;;;4357130;32;58910;-69
2022/11/23 15:23:50;;;;;;;1.70;1.20;;;;;;;;;;4345716;32;70416;-69
2022/11/23 15:26:36;;;;;;;1.30;1.08;;;;;;;;;;4346277;32;69455;-69
2022/11/23 15:29:32;;;;;;;1.95;1.30;;;;;;;;;;4343433;32;67501;-68
2022/11/23 15:32:36;;;;;;;1.05;0.95;;;;;;;;;;4334912;32;70661;-69
2022/11/23 15:35:28;;;;;;;1.92;1.10;;;;;;;;;;4356482;32;65974;-68
2022/11/23 15:38:16;;;;;;;1.52;1.20;;;;;;;;;;4343321;32;68401;-68
2022/11/23 15:41:03;;;;;;;1.77;1.42;;;;;;;;;;4335672;32;60405;-69
2022/11/23 15:43:58;;;;;;;1.62;1.37;;;;;;;;;;4332600;32;70121;-70
2022/11/23 15:46:48;;;;;;;1.33;1.10;;;;;;;;;;4345805;32;66128;-68
2022/11/23 15:49:38;;;;;;;1.92;1.48;;;;;;;;;;4356317;32;68140;-68
2022/11/23 15:52:28;;;;;;;2.58;1.62;;;;;;;;;;4346094;32;59897;-69
2022/11/23 15:55:15;;;;;;;2.20;1.62;;;;;;;;;;4367959;32;70743;-69
2022/11/23 15:58:06;;;;;;;1.73;1.30;;;;;;;;;;4332588;32;67916;-68
2022/11/23 16:01:06;;;;;;;2.72;1.25;;;;;;;;;;4356240;32;66838;-67
2022/11/23 16:03:59;;;;;;;1.52;1.17;;;;;;;;;;4355758;32;71876;-69
2022/11/23 16:06:49;;;;;;;2.00;1.35;;;;;;;;;;4353870;32;65849;-69
2022/11/23 16:09:37;;;;;;;1.30;1.15;;;;;;;;;;4353693;32;69822;-67
2022/11/23 16:12:29;;;;;;;1.65;1.20;;;;;;;;;;4334912;32;66532;-68
2022/11/23 16:15:43;;;;;;;1.17;1.00;;;;;;;;;;4345583;32;71536;-69
2022/11/23 16:18:31;;;;;;;1.33;1.02;;;;;;;;;;4345416;32;66132;-69
2022/11/23 16:21:19;;;;;;;1.23;0.90;;;;;;;;;;4356157;32;67440;-69
2022/11/23 16:24:13;;;;;;;2.25;1.20;;;;;;;;;;4356208;32;60036;-70
2022/11/23 16:27:00;;;;;;;2.08;1.33;;;;;;;;;;4356098;32;70493;-70
2022/11/23 16:29:50;;;;;;;1.67;1.10;;;;;;;;;;4342930;32;69898;-70
2022/11/23 16:32:36;;;;;;;1.37;1.00;;;;;;;;;;4342668;32;67316;-70
2022/11/23 16:35:23;;;;;;;;;;;;;;;;;;4368390;32;60451;-69
2022/11/23 16:38:11;;;;;;;1.02;0.93;;;;;;;;;;4334905;32;70248;-68
2022/11/23 16:40:57;;;;;;;0.77;0.77;;;;;;;;;;4345493;32;69291;-69
2022/11/23 16:43:44;;;;;;;;;;;;;;;;;;4346327;32;67621;-68
2022/11/23 16:46:31;;;;;;;0.85;0.70;;;;;;;;;;4358573;32;72325;-69
2022/11/23 16:49:23;;;;;;;1.52;0.93;;;;;;;;;;4359121;32;66230;-68
2022/11/23 16:52:10;;;;;;;1.10;0.88;;;;;;;;;;4359158;32;67832;-70
2022/11/23 16:54:57;;;;;;;1.35;1.02;;;;;;;;;;4358822;32;59276;-69
2022/11/23 16:57:44;;;;;;;0.88;0.73;;;;;;;;;;4345102;32;70680;-68
2022/11/23 17:00:32;;;;;;;1.42;0.73;;;;;;;;;;4345223;32;66247;-69
2022/11/23 17:03:20;;;;;;;1.05;0.93;;;;;;;;;;4345012;32;67446;-69
2022/11/23 17:06:09;;;;;;;0.95;0.90;;;;;;;;;;4334618;32;59808;-69
2022/11/23 17:08:57;;;;;;;1.62;1.00;;;;;;;;;;4337164;32;70916;-69
2022/11/23 17:11:46;;;;;;;0.73;0.73;;;;;;;;;;4345382;32;70338;-69
2022/11/23 17:14:36;;;;;;;0.88;0.73;;;;;;;;;;4337038;32;66652;-69
2022/11/23 17:17:23;;;;;;;0.95;0.85;;;;;;;;;;4347331;32;70723;-69